Llagostera, Spain
Current Conditions -  °F | °C
As of 11:00 AM on Wednesday 26 Nov 2014 (Local Time) from LEGE Reporting Station
Light Fog Light Fog  
Wind Chill: 59°   Ceiling: Unl
Heat Index: 59°   Visibility: 4mi
Dew Point: 59°   Wind: 3mph
Humidity: 100%   Direction: 20°NNE
Pressure: 29.88"   Gusts: NA
Location:  41.83°N, 2.89°E
Report Text: LEGE 261000Z 02003KT 340V050 7000 BCFG SCT002 SCT02215/15 Q1012
Loading
Personal Weather Stations






























Interactive Weather Map New forecast layout! Learn more

10-Day Weather Forecast

Advertisements
Track Severe Weather on mobile